MMLO Información del Aeropuerto

Información de la pista
Pista 13 Longitud 11480 ft Ancho 148 ft
Elevación 5956 ft Umbral 0 ft Rumbo 134
Pista 31 Longitud 11480 ft Ancho 148 ft
Elevación 5956 ft Umbral 0 ft Rumbo 314
Frecuencias del Aeropuerto
Tipo APP Nombre LEON APP Frecuencia 119.05 MHZ
Tipo ATIS Nombre ATIS Frecuencia 128.4 MHZ
Tipo TWR Nombre LEON TWR Frecuencia 118.35 MHZ
Ayudas Aeroportuarias
Tipo VOR-DME Nombre Leon Frecuencia 115800 KHZ
Información de Meteorología & NOTAM
ADDS - METARS form results

(0513 UTC 20 July 2019)
Data provider http://aviationweather.gov/metar/data/
 
METAR text: MMLO 200440Z 20004KT 8SM SCT030 BKN080 OVC200 17/14 A3034 RMK 8/463 OCNL DROPS
Conditions at: MMLO (DEL BAJIO/LEON , MX) observed 0440 UTC 20 July 2019
Temperature: 17.0°C (63°F)
Dewpoint: 14.0°C (57°F) [RH = 82%]
Pressure (altimeter): 30.34 inches Hg (1027.5 mb)
Winds: from the SSW (200 degrees) at 5 MPH (4 knots; 2.1 m/s)
Visibility: 8 miles (13 km)
Ceiling: 8000 feet AGL
Clouds: scattered clouds at 3000 feet AGL
broken clouds at 8000 feet AGL
overcast cloud deck at 20000 feet AGL
Weather: no significant weather observed at this time